Terminal Aerodrome Forecast
Issued by NWS Northern Indiana

Home | Current Version | Previous Version | Graphics & Text | Print | Product List | Glossary On
Versions: 1 2 3 4 5 6 7 8 9 10 11 12 13
000
FTUS43 KIWX 212300
TAFFWA
TAF
KFWA 212338Z 2200/2224 25010KT P6SM BKN080
     FM220400 24010KT 6SM -SHRA BKN050
      TEMPO 2204/2207 4SM -SHRA BKN035
     FM220800 29015KT P6SM BKN025
     FM221300 32018G25KT P6SM SKC=

USA.gov is the U.S. government's official web portal to all federal, state and local government web resources and services.